Time;durP1;ratioP1;P1;durP2;ratioP2;P2;SDS_P1;SDS_P2;PMS_P1;PMS_P2;Temp;Humidity;BMP_temperature;BMP_pressure;BME280_temperature;BME280_humidity;BME280_pressure;Samples;Min_cycle;Max_cycle;Signal;HPM_P1;HPM_P2
2022/12/10 00:01:05;;;;;;;10.73;8.73;;;18.60;86.80;;;;;;4162371;28;20331;-76
2022/12/10 00:03:07;;;;;;;11.98;9.05;;;18.60;87.40;;;;;;4153827;28;20247;-76
2022/12/10 00:05:11;;;;;;;10.73;9.10;;;18.60;87.90;;;;;;4162806;28;20266;-75
2022/12/10 00:07:13;;;;;;;11.63;8.82;;;18.50;87.10;;;;;;4162587;28;20259;-76
2022/12/10 00:09:17;;;;;;;9.93;8.50;;;18.50;87.30;;;;;;4161343;28;20216;-76
2022/12/10 00:11:21;;;;;;;10.43;8.88;;;18.50;87.20;;;;;;4162710;28;20619;-75
2022/12/10 00:13:24;;;;;;;11.77;8.82;;;18.50;87.50;;;;;;4153518;28;20692;-76
2022/12/10 00:15:26;;;;;;;12.15;9.20;;;18.50;87.40;;;;;;4157176;28;20216;-76
2022/12/10 00:17:28;;;;;;;11.23;9.15;;;18.50;87.20;;;;;;4159877;28;20657;-76
2022/12/10 00:19:31;;;;;;;11.23;9.02;;;18.50;87.40;;;;;;4160500;28;20209;-75
2022/12/10 00:21:36;;;;;;;10.20;8.50;;;18.50;86.90;;;;;;4162582;28;20254;-75
2022/12/10 00:23:39;;;;;;;11.63;9.00;;;18.50;87.10;;;;;;4161837;28;20274;-75
2022/12/10 00:25:41;;;;;;;11.23;9.02;;;18.50;87.30;;;;;;4163148;28;20220;-75
2022/12/10 00:27:44;;;;;;;12.65;9.63;;;18.50;87.20;;;;;;4162385;28;20282;-75
2022/12/10 00:29:46;;;;;;;11.35;9.07;;;18.50;87.40;;;;;;4162894;28;20274;-76
2022/12/10 00:31:48;;;;;;;11.63;9.05;;;18.50;87.30;;;;;;4161202;28;20244;-75
2022/12/10 00:33:51;;;;;;;10.88;9.23;;;18.40;87.50;;;;;;4162377;28;20217;-75
2022/12/10 00:35:54;;;;;;;10.93;8.30;;;18.40;86.80;;;;;;4161129;28;20212;-75
2022/12/10 00:37:58;;;;;;;10.73;8.80;;;18.50;87.20;;;;;;4162295;28;20225;-76
2022/12/10 00:40:00;;;;;;;11.73;9.55;;;18.40;86.80;;;;;;4164984;28;20337;-76
2022/12/10 00:42:03;;;;;;;12.18;9.90;;;18.40;87.00;;;;;;4165629;28;20258;-76
2022/12/10 00:44:05;;;;;;;10.63;8.90;;;18.40;86.80;;;;;;4166141;28;20272;-75
2022/12/10 00:46:08;;;;;;;10.35;8.82;;;18.50;86.70;;;;;;4165510;28;20699;-76
2022/12/10 00:48:11;;;;;;;10.77;8.65;;;18.40;86.70;;;;;;4165246;28;20239;-75
2022/12/10 00:50:13;;;;;;;11.05;9.13;;;18.40;86.80;;;;;;4165405;28;20220;-75
2022/12/10 00:52:15;;;;;;;12.32;8.75;;;18.40;86.60;;;;;;4165361;28;20244;-75
2022/12/10 00:54:19;;;;;;;13.13;9.90;;;18.40;87.00;;;;;;4162355;28;20271;-75
2022/12/10 00:56:24;;;;;;;10.88;9.07;;;18.40;86.60;;;;;;4152807;28;20222;-75
2022/12/10 00:58:29;;;;;;;11.82;9.20;;;18.40;86.60;;;;;;4165460;28;20208;-75
2022/12/10 01:00:31;;;;;;;11.40;9.18;;;18.30;86.60;;;;;;4165438;28;20264;-75
2022/12/10 01:02:33;;;;;;;11.52;9.18;;;18.40;86.70;;;;;;4155748;28;20558;-75
2022/12/10 01:04:36;;;;;;;11.85;9.38;;;18.30;86.30;;;;;;4165168;28;20216;-75
2022/12/10 01:06:43;;;;;;;10.65;8.90;;;18.30;86.60;;;;;;4165371;28;20228;-75
2022/12/10 01:08:46;;;;;;;10.82;8.65;;;18.30;87.40;;;;;;4152638;28;20217;-75
2022/12/10 01:10:55;;;;;;;11.43;9.13;;;18.30;86.50;;;;;;4164337;28;20657;-75
2022/12/10 01:12:57;;;;;;;11.20;9.20;;;18.30;86.50;;;;;;4164905;28;20266;-75
2022/12/10 01:14:59;;;;;;;10.65;8.77;;;18.30;86.60;;;;;;4164874;28;20266;-75
2022/12/10 01:17:04;;;;;;;11.70;9.25;;;18.30;86.50;;;;;;4164807;28;20216;-75
2022/12/10 01:19:07;;;;;;;9.38;8.38;;;18.30;86.50;;;;;;4165110;28;20951;-75
2022/12/10 01:21:12;;;;;;;12.10;9.00;;;18.30;86.50;;;;;;4165242;28;20275;-75
2022/12/10 01:23:14;;;;;;;11.40;9.45;;;18.20;86.40;;;;;;4165007;28;20216;-75
2022/12/10 01:25:17;;;;;;;11.05;9.27;;;18.20;86.30;;;;;;4163705;28;20216;-75
2022/12/10 01:27:20;;;;;;;11.77;9.32;;;18.20;86.20;;;;;;4153857;28;20224;-75
2022/12/10 01:29:23;;;;;;;11.45;9.32;;;18.30;86.50;;;;;;4164975;28;20263;-75
2022/12/10 01:31:27;;;;;;;10.73;8.63;;;18.20;87.10;;;;;;4164620;28;20237;-75
2022/12/10 01:33:30;;;;;;;12.32;9.32;;;18.20;86.10;;;;;;4163088;28;20291;-75
2022/12/10 01:35:36;;;;;;;10.55;8.70;;;18.20;86.30;;;;;;4164896;28;20989;-75
2022/12/10 01:37:38;;;;;;;11.10;9.05;;;18.20;86.60;;;;;;4164802;28;20209;-75
2022/12/10 01:39:40;;;;;;;10.85;8.80;;;18.20;86.30;;;;;;4165162;28;20220;-75
2022/12/10 01:41:45;;;;;;;11.48;9.63;;;18.20;86.40;;;;;;4160873;28;20255;-75
2022/12/10 01:44:01;;;;;;;10.77;8.77;;;18.20;86.40;;;;;;4154364;28;20213;-75
2022/12/10 01:46:03;;;;;;;11.68;9.05;;;18.20;86.30;;;;;;4160634;28;20278;-75
2022/12/10 01:48:06;;;;;;;12.55;9.10;;;18.20;86.60;;;;;;4160844;28;20209;-75
2022/12/10 01:50:09;;;;;;;10.52;8.77;;;18.20;86.40;;;;;;4158629;28;20266;-75
2022/12/10 01:52:11;;;;;;;12.45;9.35;;;18.10;86.30;;;;;;4163616;28;20625;-75
2022/12/10 01:54:16;;;;;;;11.98;8.98;;;18.10;86.30;;;;;;4160557;28;20216;-75
2022/12/10 01:56:20;;;;;;;10.98;8.70;;;18.10;86.40;;;;;;4164148;28;20656;-75
2022/12/10 01:58:22;;;;;;;12.80;9.40;;;18.10;86.40;;;;;;4164635;28;20661;-75
2022/12/10 02:00:26;;;;;;;12.45;9.32;;;18.10;86.10;;;;;;4163450;28;20228;-75
2022/12/10 02:02:40;;;;;;;10.15;8.90;;;18.10;86.30;;;;;;4160254;28;20231;-74
2022/12/10 02:04:58;;;;;;;10.23;8.50;;;18.10;86.00;;;;;;4164492;28;20212;-75
2022/12/10 02:07:07;;;;;;;11.38;9.18;;;18.10;86.30;;;;;;4164244;28;20216;-75
2022/12/10 02:09:17;;;;;;;10.88;8.77;;;18.10;86.00;;;;;;4164260;28;20266;-76
2022/12/10 02:11:28;;;;;;;10.90;9.10;;;18.10;86.00;;;;;;4164314;28;20242;-75
2022/12/10 02:13:38;;;;;;;11.57;9.02;;;18.10;85.80;;;;;;4164157;28;20309;-75
2022/12/10 02:15:47;;;;;;;13.50;9.40;;;18.10;86.30;;;;;;4164224;28;20228;-76
2022/12/10 02:17:53;;;;;;;13.15;9.60;;;18.10;86.00;;;;;;4159802;28;20270;-76
2022/12/10 02:20:08;;;;;;;11.18;9.13;;;18.00;86.30;;;;;;4164224;28;20953;-76
2022/12/10 02:22:13;;;;;;;11.77;9.25;;;18.00;86.00;;;;;;4164097;28;20286;-75
2022/12/10 02:24:19;;;;;;;9.73;8.73;;;18.00;86.00;;;;;;4164239;28;20224;-75
2022/12/10 02:26:26;;;;;;;11.48;9.00;;;18.00;85.90;;;;;;4162914;28;20220;-75
2022/12/10 02:28:39;;;;;;;11.35;9.10;;;18.00;86.30;;;;;;4163750;28;20212;-75
2022/12/10 02:30:43;;;;;;;12.05;9.50;;;18.10;85.60;;;;;;4163887;28;20208;-75
2022/12/10 02:32:49;;;;;;;10.77;9.15;;;18.00;85.90;;;;;;4124197;28;20669;-75
2022/12/10 02:34:55;;;;;;;10.80;9.15;;;18.00;85.90;;;;;;4131227;28;20272;-75
2022/12/10 02:37:01;;;;;;;13.23;9.85;;;18.00;85.90;;;;;;4124381;28;20218;-75
2022/12/10 02:39:06;;;;;;;10.88;9.35;;;18.00;86.20;;;;;;4131130;28;20620;-75
2022/12/10 02:41:16;;;;;;;10.82;9.20;;;18.00;85.90;;;;;;4131477;28;20221;-75
2022/12/10 02:43:20;;;;;;;11.23;9.40;;;18.00;86.10;;;;;;4124112;28;20214;-75
2022/12/10 02:45:26;;;;;;;10.70;9.57;;;18.00;85.80;;;;;;4131230;28;20213;-76
2022/12/10 02:47:30;;;;;;;12.73;9.40;;;18.00;85.60;;;;;;4122997;28;20619;-75
2022/12/10 02:49:35;;;;;;;10.48;8.75;;;18.00;85.80;;;;;;4128351;28;20222;-75
2022/12/10 02:51:37;;;;;;;10.70;9.02;;;17.90;85.80;;;;;;4130897;28;20272;-75
2022/12/10 02:53:43;;;;;;;12.93;9.63;;;18.00;85.70;;;;;;4130775;28;20241;-76
2022/12/10 02:56:05;;;;;;;12.02;9.45;;;17.90;85.90;;;;;;4131325;28;20564;-75
2022/12/10 02:58:15;;;;;;;10.38;8.43;;;17.90;86.10;;;;;;4122390;28;20210;-75
2022/12/10 03:00:19;;;;;;;9.75;8.20;;;17.90;85.90;;;;;;4131014;28;20626;-75
2022/12/10 03:02:27;;;;;;;11.52;9.60;;;17.90;86.00;;;;;;4122302;28;20273;-75
2022/12/10 03:04:40;;;;;;;11.35;9.20;;;17.90;85.70;;;;;;4130958;28;20276;-75
2022/12/10 03:06:47;;;;;;;9.77;8.75;;;17.90;85.90;;;;;;4130406;28;20218;-75
2022/12/10 03:08:53;;;;;;;11.68;9.65;;;17.90;85.60;;;;;;4130501;28;20222;-75
2022/12/10 03:11:00;;;;;;;10.95;9.32;;;17.90;85.60;;;;;;4130930;28;20268;-75
2022/12/10 03:13:07;;;;;;;11.93;9.20;;;17.90;86.00;;;;;;4122253;28;20699;-76
2022/12/10 03:15:11;;;;;;;11.52;9.45;;;17.90;86.00;;;;;;4128146;28;20267;-75
2022/12/10 03:17:15;;;;;;;11.85;9.50;;;17.90;85.70;;;;;;4130324;28;20210;-75
2022/12/10 03:19:21;;;;;;;11.15;9.32;;;17.90;85.70;;;;;;4126207;28;20280;-75
2022/12/10 03:21:27;;;;;;;10.95;9.05;;;17.90;85.60;;;;;;4131072;28;20650;-75
2022/12/10 03:23:31;;;;;;;12.40;9.55;;;17.80;85.70;;;;;;4130516;28;20222;-75
2022/12/10 03:25:34;;;;;;;12.25;9.52;;;17.90;85.60;;;;;;4130585;28;20217;-75
2022/12/10 03:27:40;;;;;;;10.43;9.13;;;17.80;85.60;;;;;;4130511;28;20214;-75
2022/12/10 03:29:46;;;;;;;12.52;9.85;;;17.80;85.60;;;;;;4129818;28;20265;-75
2022/12/10 03:31:51;;;;;;;11.43;9.88;;;17.80;85.60;;;;;;4148228;28;20236;-75
2022/12/10 03:33:55;;;;;;;12.35;9.70;;;17.80;85.70;;;;;;4156185;28;20244;-75
2022/12/10 03:35:58;;;;;;;11.50;9.63;;;17.80;85.70;;;;;;4157712;28;20278;-75
2022/12/10 03:38:02;;;;;;;9.93;8.88;;;17.80;85.50;;;;;;4157599;28;20228;-75
2022/12/10 03:40:07;;;;;;;11.57;9.77;;;17.80;85.60;;;;;;4164459;28;20224;-75
2022/12/10 03:42:09;;;;;;;12.82;10.35;;;17.80;85.60;;;;;;4155631;28;20258;-75
2022/12/10 03:44:12;;;;;;;12.32;10.00;;;17.80;85.10;;;;;;4163267;28;20212;-75
2022/12/10 03:46:14;;;;;;;12.70;9.90;;;17.80;86.20;;;;;;4162879;28;20661;-75
2022/12/10 03:48:16;;;;;;;12.00;9.77;;;17.70;85.90;;;;;;4159629;28;20266;-75
2022/12/10 03:50:19;;;;;;;11.80;10.32;;;17.70;85.60;;;;;;4153363;28;20212;-76
2022/12/10 03:52:21;;;;;;;11.45;9.57;;;17.70;85.80;;;;;;4159663;28;20225;-75
2022/12/10 03:54:25;;;;;;;12.63;10.13;;;17.80;85.80;;;;;;4162391;28;20232;-76
2022/12/10 03:56:27;;;;;;;13.10;11.00;;;17.70;85.20;;;;;;4162963;28;20262;-76
2022/12/10 03:58:30;;;;;;;13.35;10.15;;;17.70;85.20;;;;;;4156352;28;20258;-76
2022/12/10 04:00:32;;;;;;;12.60;9.88;;;17.70;85.40;;;;;;4162672;28;20625;-76
2022/12/10 04:02:34;;;;;;;11.95;9.63;;;17.70;85.40;;;;;;4154112;28;20225;-76
2022/12/10 04:04:37;;;;;;;11.18;9.27;;;17.70;85.40;;;;;;4162686;28;20208;-76
2022/12/10 04:06:40;;;;;;;12.23;10.10;;;17.70;85.30;;;;;;4162614;28;20212;-76
2022/12/10 04:08:42;;;;;;;12.43;10.27;;;17.70;85.40;;;;;;4157495;28;20740;-76
2022/12/10 04:10:46;;;;;;;12.77;10.75;;;17.70;85.70;;;;;;4162444;28;20213;-76
2022/12/10 04:16:26;;;;;;;10.75;9.43;;;17.70;85.50;;;;;;4162501;28;20216;-76
2022/12/10 04:17:33;;;;;;;14.10;10.80;;;17.70;85.50;;;;;;4161281;28;20204;-76
2022/12/10 04:19:35;;;;;;;12.90;10.20;;;17.70;85.00;;;;;;4165958;28;20295;-76
2022/12/10 04:28:40;;;;;;;13.50;10.27;;;17.70;85.10;;;;;;4154815;28;20614;-76
2022/12/10 04:30:42;;;;;;;13.27;10.65;;;17.60;85.10;;;;;;4165711;28;20216;-75
2022/12/10 04:32:44;;;;;;;12.93;11.05;;;17.60;85.10;;;;;;4143171;28;20276;-75
2022/12/10 04:34:47;;;;;;;13.77;11.40;;;17.60;85.40;;;;;;4147772;28;20288;-75
2022/12/10 04:36:50;;;;;;;13.27;10.38;;;17.60;85.50;;;;;;4136462;28;20216;-75
2022/12/10 04:38:52;;;;;;;13.68;10.93;;;17.60;85.30;;;;;;4149392;28;20217;-75
2022/12/10 04:40:54;;;;;;;13.38;11.02;;;17.60;85.30;;;;;;4143123;28;20226;-76
2022/12/10 04:42:58;;;;;;;12.90;10.90;;;17.60;85.20;;;;;;4146058;28;20283;-75
2022/12/10 04:45:00;;;;;;;12.38;10.18;;;17.60;85.10;;;;;;4148961;28;20213;-75
2022/12/10 04:47:03;;;;;;;14.25;10.73;;;17.60;85.00;;;;;;4149322;28;20271;-76
2022/12/10 04:49:06;;;;;;;14.75;11.57;;;17.60;85.40;;;;;;4149435;28;20327;-75
2022/12/10 04:51:08;;;;;;;14.27;11.38;;;17.60;85.20;;;;;;4149585;28;20279;-75
2022/12/10 04:53:11;;;;;;;12.98;11.38;;;17.60;85.00;;;;;;4148943;28;20232;-75
2022/12/10 04:55:14;;;;;;;13.25;10.95;;;17.60;85.10;;;;;;4148611;28;20283;-75
2022/12/10 04:57:17;;;;;;;14.77;11.18;;;17.60;85.10;;;;;;4147903;28;20221;-76
2022/12/10 04:59:21;;;;;;;13.95;11.07;;;17.50;85.30;;;;;;4148851;28;20228;-75
2022/12/10 05:01:23;;;;;;;14.63;11.52;;;17.50;85.40;;;;;;4147753;28;20275;-75
2022/12/10 05:03:25;;;;;;;13.55;10.90;;;17.50;84.90;;;;;;4143969;28;20283;-75
2022/12/10 05:05:28;;;;;;;12.95;11.05;;;17.60;85.10;;;;;;4148598;28;20272;-75
2022/12/10 05:07:30;;;;;;;13.40;10.80;;;17.50;85.00;;;;;;4148627;28;20755;-75
2022/12/10 05:09:32;;;;;;;13.73;11.30;;;17.50;85.20;;;;;;4148699;28;20267;-75
2022/12/10 05:11:35;;;;;;;13.82;11.20;;;17.50;85.20;;;;;;4148789;28;20210;-75
2022/12/10 05:13:38;;;;;;;13.60;11.13;;;17.50;85.20;;;;;;4148511;28;20221;-75
2022/12/10 05:15:42;;;;;;;15.77;11.70;;;17.50;85.50;;;;;;4148207;28;20272;-75
2022/12/10 05:17:44;;;;;;;16.00;11.57;;;17.50;85.20;;;;;;4148844;28;20669;-75
2022/12/10 05:19:47;;;;;;;12.95;10.68;;;17.50;85.20;;;;;;4148622;28;20221;-75
2022/12/10 05:24:11;;;;;;;15.40;11.60;;;17.50;85.10;;;;;;4134636;28;20190;-75
2022/12/10 05:26:16;;;;;;;15.27;11.82;;;17.50;85.10;;;;;;4142592;28;20752;-75
2022/12/10 05:28:19;;;;;;;13.82;11.02;;;17.50;85.00;;;;;;4147991;28;20272;-75
2022/12/10 05:30:21;;;;;;;14.75;11.52;;;17.50;85.20;;;;;;4140459;28;20240;-73
2022/12/10 05:32:24;;;;;;;14.40;11.65;;;17.50;85.20;;;;;;4158326;28;20225;-73
2022/12/10 05:34:27;;;;;;;14.88;11.90;;;17.40;84.80;;;;;;4161340;28;20716;-73
2022/12/10 05:36:31;;;;;;;14.55;11.32;;;17.40;85.00;;;;;;4155063;28;20228;-73
2022/12/10 05:38:35;;;;;;;15.77;12.60;;;17.40;85.10;;;;;;4164511;28;20224;-73
2022/12/10 05:40:38;;;;;;;13.95;11.60;;;17.40;85.00;;;;;;4171946;28;20258;-73
2022/12/10 05:42:40;;;;;;;12.65;10.95;;;17.40;85.00;;;;;;4167612;28;20715;-73
2022/12/10 05:44:42;;;;;;;15.73;12.20;;;17.40;85.10;;;;;;4163708;28;20213;-73
2022/12/10 05:46:45;;;;;;;15.63;12.23;;;17.40;84.90;;;;;;4161524;28;20209;-73
2022/12/10 05:48:49;;;;;;;17.25;12.13;;;17.40;85.00;;;;;;4164405;28;20748;-73
2022/12/10 05:50:51;;;;;;;16.02;11.65;;;17.40;84.90;;;;;;4164421;28;20220;-73
2022/12/10 05:52:53;;;;;;;14.93;11.80;;;17.40;85.00;;;;;;4164835;28;20274;-73
2022/12/10 05:54:56;;;;;;;14.95;12.05;;;17.40;84.90;;;;;;4164346;28;20240;-73
2022/12/10 05:56:58;;;;;;;15.55;11.63;;;17.40;84.90;;;;;;4164994;28;20286;-73
2022/12/10 05:59:02;;;;;;;14.27;11.40;;;17.40;84.90;;;;;;4164410;28;20687;-73
2022/12/10 06:01:07;;;;;;;16.23;11.68;;;17.40;85.30;;;;;;4164096;28;20286;-73
2022/12/10 06:03:10;;;;;;;16.30;11.82;;;17.30;85.00;;;;;;4163360;28;20653;-73
2022/12/10 06:05:13;;;;;;;15.60;12.18;;;17.40;84.80;;;;;;4164207;28;20254;-73
2022/12/10 06:07:16;;;;;;;13.27;10.95;;;17.40;85.10;;;;;;4164278;28;20918;-73
2022/12/10 06:09:18;;;;;;;14.57;11.65;;;17.30;85.00;;;;;;4164095;28;20263;-73
2022/12/10 06:11:21;;;;;;;16.15;12.10;;;17.30;84.90;;;;;;4161721;28;20216;-73
2022/12/10 06:13:23;;;;;;;16.08;11.93;;;17.30;84.90;;;;;;4164588;28;20221;-73
2022/12/10 06:15:26;;;;;;;15.90;12.60;;;17.30;85.00;;;;;;4164062;28;20409;-73
2022/12/10 06:17:28;;;;;;;14.00;11.45;;;17.30;85.20;;;;;;4164326;28;20290;-73
2022/12/10 06:19:31;;;;;;;13.98;11.95;;;17.30;85.00;;;;;;4157390;28;20271;-73
2022/12/10 06:21:35;;;;;;;14.45;11.23;;;17.30;85.10;;;;;;4164032;28;20208;-73
2022/12/10 06:23:38;;;;;;;14.77;12.32;;;17.30;85.20;;;;;;4163140;28;20217;-73
2022/12/10 06:25:41;;;;;;;13.15;11.48;;;17.30;85.10;;;;;;4158677;28;20635;-73
2022/12/10 06:27:43;;;;;;;16.00;12.85;;;17.30;85.00;;;;;;4164255;28;20281;-73
2022/12/10 06:29:45;;;;;;;15.35;11.90;;;17.30;85.00;;;;;;4163863;28;20226;-73
2022/12/10 06:31:48;;;;;;;16.80;12.93;;;17.30;85.00;;;;;;4163396;28;20236;-72
2022/12/10 06:33:51;;;;;;;17.05;12.15;;;17.30;84.90;;;;;;4163824;28;20719;-73
2022/12/10 06:35:53;;;;;;;15.48;11.48;;;17.30;85.20;;;;;;4162186;28;20298;-73
2022/12/10 06:37:57;;;;;;;15.73;11.65;;;17.20;85.00;;;;;;4163542;28;20244;-73
2022/12/10 06:40:00;;;;;;;15.48;11.93;;;17.20;84.80;;;;;;4164156;28;20279;-73
2022/12/10 06:42:02;;;;;;;13.73;11.52;;;17.20;85.10;;;;;;4163615;28;20263;-73
2022/12/10 06:44:08;;;;;;;18.45;12.38;;;17.20;85.10;;;;;;4163962;28;20212;-73
2022/12/10 06:46:12;;;;;;;14.70;12.43;;;17.20;85.30;;;;;;4163885;28;20243;-73
2022/12/10 06:48:15;;;;;;;12.43;11.05;;;17.20;85.20;;;;;;4163589;28;20216;-73
2022/12/10 06:50:17;;;;;;;15.40;11.98;;;17.20;84.90;;;;;;4163186;28;20327;-73
2022/12/10 06:52:19;;;;;;;14.50;11.43;;;17.20;84.90;;;;;;4157643;28;20596;-73
2022/12/10 06:54:23;;;;;;;15.30;12.13;;;17.20;84.90;;;;;;4160269;28;20270;-73
2022/12/10 06:56:26;;;;;;;15.48;11.93;;;17.20;85.20;;;;;;4163598;28;20635;-73
2022/12/10 06:58:29;;;;;;;16.45;12.48;;;17.20;85.20;;;;;;4163309;28;20278;-73
2022/12/10 07:00:32;;;;;;;14.55;11.68;;;17.20;85.10;;;;;;4163618;28;20660;-73
2022/12/10 07:02:35;;;;;;;14.80;11.82;;;17.20;85.10;;;;;;4160506;28;20213;-73
2022/12/10 07:04:37;;;;;;;15.98;11.40;;;17.20;84.90;;;;;;4159199;28;20216;-73
2022/12/10 07:06:40;;;;;;;14.63;11.63;;;17.20;85.10;;;;;;4163268;28;20262;-73
2022/12/10 07:08:42;;;;;;;16.40;12.48;;;17.20;85.30;;;;;;4160332;28;20262;-73
2022/12/10 07:10:46;;;;;;;15.85;11.98;;;17.20;85.00;;;;;;4163436;28;20220;-73
2022/12/10 07:12:48;;;;;;;13.35;11.07;;;17.20;85.20;;;;;;4152383;28;20212;-73
2022/12/10 07:14:50;;;;;;;14.25;11.30;;;17.20;85.20;;;;;;4158012;28;20301;-73
2022/12/10 07:16:53;;;;;;;15.68;12.45;;;17.20;85.20;;;;;;4158585;28;20565;-73
2022/12/10 07:18:57;;;;;;;14.48;11.40;;;17.10;85.10;;;;;;4159915;28;20255;-73
2022/12/10 07:21:00;;;;;;;15.40;11.93;;;17.10;85.10;;;;;;4163237;28;20212;-73
2022/12/10 07:23:02;;;;;;;14.40;11.50;;;17.10;85.40;;;;;;4163189;28;20216;-73
2022/12/10 07:25:05;;;;;;;16.40;11.93;;;17.10;85.40;;;;;;4159774;28;20216;-73
2022/12/10 07:27:09;;;;;;;15.52;11.73;;;17.10;85.20;;;;;;4162999;28;20274;-73
2022/12/10 07:29:14;;;;;;;14.73;11.13;;;17.10;85.60;;;;;;4163095;28;20213;-73
2022/12/10 07:31:17;;;;;;;15.40;12.00;;;17.10;85.20;;;;;;4163136;28;20766;-73
2022/12/10 07:33:19;;;;;;;15.02;11.85;;;17.10;85.50;;;;;;4156270;28;20217;-73
2022/12/10 07:35:22;;;;;;;14.15;11.68;;;17.10;85.20;;;;;;4163190;28;20237;-73
2022/12/10 07:37:24;;;;;;;15.15;12.02;;;17.10;85.40;;;;;;4163168;28;20274;-73
2022/12/10 07:39:26;;;;;;;14.05;11.55;;;17.10;85.50;;;;;;4163139;28;20274;-73
2022/12/10 07:41:30;;;;;;;14.30;11.77;;;17.10;85.20;;;;;;4161081;28;20220;-73
2022/12/10 07:43:36;;;;;;;14.57;11.43;;;17.10;85.60;;;;;;4157460;28;20217;-73
2022/12/10 07:45:38;;;;;;;14.88;11.70;;;17.10;85.20;;;;;;4162884;28;20726;-73
2022/12/10 07:47:41;;;;;;;15.25;11.60;;;17.10;85.00;;;;;;4162966;28;20275;-73
2022/12/10 07:49:43;;;;;;;16.65;11.98;;;17.10;85.30;;;;;;4162033;28;20342;-73
2022/12/10 07:51:46;;;;;;;15.40;11.65;;;17.10;85.50;;;;;;4163164;28;20266;-73
2022/12/10 07:53:49;;;;;;;15.25;11.55;;;17.00;85.30;;;;;;4162602;28;20271;-73
2022/12/10 07:55:52;;;;;;;13.63;10.70;;;17.00;85.50;;;;;;4162548;28;20291;-73
2022/12/10 07:57:54;;;;;;;16.40;11.93;;;17.00;85.50;;;;;;4159232;28;20322;-73
2022/12/10 07:59:58;;;;;;;15.30;11.45;;;17.00;85.50;;;;;;4162630;28;20262;-73
2022/12/10 08:02:01;;;;;;;14.38;11.27;;;17.00;85.50;;;;;;4159731;28;20212;-73
2022/12/10 08:04:03;;;;;;;14.13;11.57;;;17.00;85.60;;;;;;4161471;28;20266;-73
2022/12/10 08:06:08;;;;;;;13.63;10.80;;;17.00;85.80;;;;;;4162376;28;20213;-73
2022/12/10 08:08:10;;;;;;;13.60;11.35;;;17.00;85.40;;;;;;4162646;28;20220;-73
2022/12/10 08:10:13;;;;;;;15.48;11.70;;;17.00;85.50;;;;;;4162546;28;20220;-73
2022/12/10 08:12:15;;;;;;;15.68;11.85;;;17.00;85.60;;;;;;4162623;28;20216;-73
2022/12/10 08:14:17;;;;;;;14.70;10.95;;;17.00;85.70;;;;;;4156899;28;20217;-73
2022/12/10 08:16:24;;;;;;;14.35;10.82;;;17.00;85.80;;;;;;4162393;28;20654;-73
2022/12/10 08:18:27;;;;;;;14.15;11.13;;;17.00;85.70;;;;;;4162415;28;20216;-73
2022/12/10 08:20:29;;;;;;;16.85;12.50;;;17.00;85.60;;;;;;4162188;28;20687;-73
2022/12/10 08:22:33;;;;;;;13.57;10.75;;;17.00;86.00;;;;;;4162764;28;20262;-73
2022/12/10 08:24:36;;;;;;;14.25;11.18;;;16.90;86.10;;;;;;4162428;28;20217;-73
2022/12/10 08:26:38;;;;;;;13.60;11.15;;;16.90;85.80;;;;;;4149223;28;20287;-73
2022/12/10 08:28:41;;;;;;;13.93;11.07;;;16.90;85.90;;;;;;4146483;28;20244;-73
2022/12/10 08:30:46;;;;;;;14.40;11.45;;;17.00;86.00;;;;;;4145847;28;20719;-73
2022/12/10 08:32:50;;;;;;;17.10;12.05;;;17.00;86.00;;;;;;4149993;28;20263;-73
2022/12/10 08:34:52;;;;;;;14.48;11.07;;;16.90;85.90;;;;;;4159625;28;20274;-73
2022/12/10 08:36:55;;;;;;;15.15;11.15;;;17.00;85.70;;;;;;4150563;28;20236;-73
2022/12/10 08:38:57;;;;;;;14.77;11.82;;;17.00;86.10;;;;;;4162597;28;20262;-73
2022/12/10 08:40:59;;;;;;;15.73;11.60;;;16.90;86.20;;;;;;4152690;28;20573;-73
2022/12/10 08:43:02;;;;;;;15.57;11.73;;;16.90;85.90;;;;;;4160718;28;20216;-73
2022/12/10 08:45:05;;;;;;;15.45;11.60;;;16.90;85.90;;;;;;4162630;28;20213;-73
2022/12/10 08:47:07;;;;;;;14.52;11.55;;;16.90;86.40;;;;;;4154697;28;20280;-73
2022/12/10 08:49:11;;;;;;;14.75;11.80;;;17.00;85.80;;;;;;4157593;28;20586;-73
2022/12/10 08:51:16;;;;;;;15.52;12.10;;;16.90;86.30;;;;;;4162264;28;20258;-73
2022/12/10 08:53:19;;;;;;;14.48;10.82;;;16.90;86.00;;;;;;4161955;28;20217;-73
2022/12/10 08:55:21;;;;;;;13.77;11.13;;;16.90;86.00;;;;;;4162091;28;20213;-73
2022/12/10 08:57:23;;;;;;;13.10;10.75;;;16.90;85.90;;;;;;4162489;28;20337;-73
2022/12/10 08:59:25;;;;;;;15.18;11.57;;;16.90;86.10;;;;;;4162436;28;20278;-73
2022/12/10 09:01:28;;;;;;;14.80;11.30;;;16.90;86.30;;;;;;4160759;28;20221;-73
2022/12/10 09:03:30;;;;;;;16.20;12.00;;;16.90;86.10;;;;;;4163100;28;20217;-73
2022/12/10 09:05:35;;;;;;;14.27;11.00;;;16.90;85.90;;;;;;4158414;28;20254;-73
2022/12/10 09:07:37;;;;;;;14.73;11.70;;;16.90;86.40;;;;;;4165365;28;20247;-73
2022/12/10 09:09:40;;;;;;;15.50;11.52;;;16.90;86.30;;;;;;4165092;28;20220;-73
2022/12/10 09:11:43;;;;;;;14.45;10.85;;;16.90;86.00;;;;;;4165071;28;20266;-73
2022/12/10 09:13:46;;;;;;;14.27;11.45;;;16.90;85.90;;;;;;4156335;28;20266;-73
2022/12/10 09:15:52;;;;;;;13.73;11.48;;;16.90;86.10;;;;;;4154359;28;20270;-73
2022/12/10 09:17:54;;;;;;;13.65;10.60;;;16.90;86.40;;;;;;4152983;28;20275;-73
2022/12/10 09:19:57;;;;;;;13.93;10.88;;;16.90;86.20;;;;;;4160092;28;20216;-73
2022/12/10 09:22:00;;;;;;;15.55;12.02;;;16.90;86.40;;;;;;4156976;28;20221;-73
2022/12/10 09:24:03;;;;;;;13.07;10.68;;;16.90;86.40;;;;;;4161710;28;20216;-73
2022/12/10 09:26:08;;;;;;;14.15;11.02;;;16.90;86.20;;;;;;4164725;28;20715;-73
2022/12/10 09:28:11;;;;;;;13.27;10.73;;;16.90;86.10;;;;;;4165292;28;20235;-73
2022/12/10 09:30:14;;;;;;;16.63;11.65;;;16.90;86.40;;;;;;4164884;28;20270;-72
2022/12/10 09:32:16;;;;;;;13.98;10.90;;;16.80;86.20;;;;;;4164652;28;20232;-73
2022/12/10 09:34:19;;;;;;;14.82;11.15;;;16.90;86.60;;;;;;4165414;28;20282;-73
2022/12/10 09:36:22;;;;;;;13.18;10.52;;;16.90;86.40;;;;;;4160624;28;20305;-73
2022/12/10 09:38:26;;;;;;;16.23;11.60;;;16.80;86.30;;;;;;4163650;28;20217;-73
2022/12/10 09:40:37;;;;;;;14.88;11.63;;;16.80;86.50;;;;;;4159035;28;20385;-73
2022/12/10 09:42:49;;;;;;;13.90;11.30;;;16.90;86.40;;;;;;4153996;28;20228;-73
2022/12/10 09:45:01;;;;;;;13.25;10.43;;;16.90;86.60;;;;;;4165022;28;20885;-73
2022/12/10 09:47:06;;;;;;;14.85;10.98;;;16.80;86.30;;;;;;4164535;28;20216;-75
2022/12/10 09:49:19;;;;;;;14.70;11.88;;;16.80;86.50;;;;;;4154044;28;20212;-73
2022/12/10 09:51:23;;;;;;;13.65;10.68;;;16.80;86.70;;;;;;4164453;28;20212;-73
2022/12/10 09:53:29;;;;;;;15.10;11.70;;;16.80;87.00;;;;;;4164629;28;20243;-73
2022/12/10 09:55:35;;;;;;;13.77;11.15;;;16.80;86.70;;;;;;4163387;28;20279;-73
2022/12/10 09:57:41;;;;;;;13.88;10.70;;;16.80;86.60;;;;;;4164437;28;20278;-73
2022/12/10 09:59:49;;;;;;;12.70;10.82;;;16.80;87.10;;;;;;4164359;28;20622;-73
2022/12/10 10:02:02;;;;;;;14.07;10.85;;;16.90;87.10;;;;;;4164422;28;20270;-73
2022/12/10 10:04:05;;;;;;;14.57;11.70;;;16.80;88.00;;;;;;4164841;28;20204;-73
2022/12/10 10:06:11;;;;;;;13.40;11.10;;;16.80;86.70;;;;;;4159931;28;20217;-73
2022/12/10 10:08:22;;;;;;;14.27;11.27;;;16.80;86.90;;;;;;4164569;28;20672;-73
2022/12/10 10:10:28;;;;;;;12.95;10.30;;;16.80;87.00;;;;;;4159527;28;20229;-73
2022/12/10 10:12:32;;;;;;;14.00;10.60;;;16.80;86.60;;;;;;4163791;28;20262;-73
2022/12/10 10:14:35;;;;;;;13.38;11.40;;;16.80;87.00;;;;;;4163371;28;20220;-73
2022/12/10 10:16:45;;;;;;;14.75;11.43;;;16.80;87.00;;;;;;4164166;28;20271;-73
2022/12/10 10:18:52;;;;;;;13.50;10.52;;;16.80;86.90;;;;;;4164282;28;20216;-73
2022/12/10 10:20:55;;;;;;;15.10;11.70;;;16.80;87.40;;;;;;4164185;28;20220;-73
2022/12/10 10:23:00;;;;;;;14.35;11.40;;;16.80;87.00;;;;;;4164186;28;20584;-73
2022/12/10 10:25:02;;;;;;;13.77;10.95;;;16.80;87.20;;;;;;4163952;28;20224;-73
2022/12/10 10:27:14;;;;;;;14.13;11.07;;;16.80;87.10;;;;;;4158744;28;20213;-74
2022/12/10 10:29:19;;;;;;;14.85;11.45;;;16.80;88.20;;;;;;4164266;28;20280;-73
2022/12/10 10:31:25;;;;;;;13.73;10.90;;;16.80;87.10;;;;;;4163801;28;20236;-73
2022/12/10 10:33:27;;;;;;;16.23;11.15;;;16.80;87.20;;;;;;4164001;28;20275;-73
2022/12/10 10:35:33;;;;;;;13.45;11.18;;;16.80;87.30;;;;;;4160644;28;20225;-73
2022/12/10 10:37:42;;;;;;;14.02;11.88;;;16.80;87.50;;;;;;4163866;28;20236;-73
2022/12/10 10:39:48;;;;;;;12.50;10.68;;;16.80;87.50;;;;;;4163907;28;20220;-73
2022/12/10 10:41:53;;;;;;;13.85;11.55;;;16.80;87.70;;;;;;4161069;28;20220;-73
2022/12/10 10:44:03;;;;;;;14.45;11.52;;;16.80;87.70;;;;;;4152851;28;20216;-73